Latest Weather Observations for Laverton

IDV60901

Issued at 2:05 pm EST Sunday 21 September 2014 (issued every 10 minutes, with the page automatically refreshed every 10 minutes)

About weather observations | Map of Melbourne area stations | Latest observations for Melbourne area | Other Formats
Station Details ID: 087031 Name: LAVERTON RAAF Lat: -37.86 Lon: 144.76 Height: 20.1 m
Data from the previous 72 hours. | See also: Recent months at Laverton
Date/Time
EST
Tmp

°C
App
Tmp
°C
Dew
Point
°C
Rel
Hum
%
Delta-T

°C
Wind Press
QNH
hPa
Press
MSL
hPa
Rain
since
9 am
mm
Dir
 
Spd
km/h
Gust
km/h
Spd
kts
Gust
kts
21/02:00pm 15.3 11.5 5.8 53 4.5 S 15 22 8 12 1030.3 1030.3 0.0
21/01:30pm 15.6 11.9 6.3 54 4.5 SSE 15 19 8 10 1030.7 1030.7 0.0
21/01:00pm 15.5 11.4 6.0 53 4.5 SSE 17 22 9 12 1031.1 1031.1 0.0
21/12:30pm 15.0 11.1 5.2 52 4.6 SE 15 20 8 11 1031.4 1031.4 0.0
21/12:00pm 15.3 11.5 5.8 53 4.5 ESE 15 24 8 13 1031.8 1031.8 0.0
21/11:30am 14.8 10.3 5.9 55 4.3 S 19 24 10 13 1032.1 1032.1 0.0
21/11:00am 14.8 10.6 5.6 54 4.3 SSE 17 30 9 16 1032.2 1032.2 0.0
21/10:30am 13.7 9.3 4.8 55 4.1 SE 17 26 9 14 1032.3 1032.3 0.0
21/10:00am 13.6 9.2 5.0 56 4.0 S 17 20 9 11 1032.3 1032.3 0.0
21/09:30am 13.5 9.6 5.4 58 3.8 SSE 15 24 8 13 1032.0 1032.0 0.0
21/09:00am 13.2 10.1 5.6 60 3.5 SE 11 15 6 8 1031.8 1031.8 0.0
21/08:30am 12.5 10.5 7.0 69 2.6 SSW 7 11 4 6 1031.6 1031.6 0.0
21/08:00am 11.5 9.9 8.0 79 1.7 WSW 6 7 3 4 1031.4 1031.4 0.0
21/07:30am 10.5 8.9 8.6 88 0.9 WSW 7 11 4 6 1031.4 1031.4 0.0
21/07:00am 9.9 8.2 8.3 90 0.8 SW 7 9 4 5 1031.2 1031.2 0.0
21/06:30am 9.6 9.2 8.2 91 0.7 CALM 0 6 0 3 1030.8 1030.8 0.0
21/06:00am 9.2 7.4 7.8 91 0.7 W 7 7 4 4 1030.5 1030.5 0.0
21/05:30am 9.6 8.0 8.2 91 0.7 WSW 6 6 3 3 1030.3 1030.3 0.0
21/05:00am 9.9 8.4 8.3 90 0.8 WSW 6 6 3 3 1030.2 1030.2 0.0
21/04:30am 9.9 8.2 8.5 91 0.7 WSW 7 9 4 5 1030.0 1030.0 0.0
21/04:00am 9.9 8.3 8.7 92 0.6 W 7 9 4 5 1029.8 1029.8 0.0
21/03:30am 9.7 7.7 8.5 92 0.6 W 9 11 5 6 1029.7 1029.7 0.0
21/03:00am 9.3 6.7 7.9 91 0.7 WSW 11 15 6 8 1030.1 1030.1 0.0
21/02:30am 8.7 6.4 7.3 91 0.7 WSW 9 13 5 7 1030.1 1030.1 0.0
21/02:00am 8.4 6.0 7.2 92 0.6 WNW 9 13 5 7 1030.2 1030.2 0.0
21/01:30am 8.5 6.2 7.3 92 0.6 WNW 9 13 5 7 1030.3 1030.3 0.0
21/01:00am 7.9 5.8 6.8 93 0.5 WNW 7 9 4 5 1030.3 1030.3 0.0
21/12:30am 7.2 4.6 6.0 92 0.5 WNW 9 11 5 6 1030.4 1030.4 0.0
21/12:00am 7.2 4.9 5.8 91 0.6 SSW 7 9 4 5 1030.3 1030.3 0.0
 
Date/Time
EST
Tmp

°C
App
Tmp
°C
Dew
Point
°C
Rel
Hum
%
Delta-T

°C
Wind Press
QNH
hPa
Press
MSL
hPa
Rain
since
9 am
mm
Dir
 
Spd
km/h
Gust
km/h
Spd
kts
Gust
kts
20/11:30pm 9.1 7.4 7.4 89 0.8 SSE 6 7 3 4 1030.2 1030.2 0.0
20/11:00pm 10.0 8.2 8.1 88 0.9 SSE 7 9 4 5 1030.2 1030.2 0.0
20/10:30pm 10.1 7.5 7.9 86 1.1 SSE 11 13 6 7 1030.3 1030.3 0.0
20/10:00pm 10.2 7.9 7.6 84 1.2 SSE 9 13 5 7 1030.3 1030.3 0.0
20/09:30pm 10.9 8.0 8.1 83 1.4 SSE 13 17 7 9 1030.4 1030.4 0.0
20/09:00pm 11.4 8.9 8.1 80 1.6 SSE 11 22 6 12 1030.4 1030.4 0.0
20/08:30pm 11.9 9.0 8.2 78 1.8 SSE 13 19 7 10 1030.4 1030.4 0.0
20/08:00pm 11.8 8.6 8.3 79 1.7 S 15 22 8 12 1030.3 1030.3 0.0
20/07:30pm 11.8 8.0 7.7 76 2.0 SSE 17 24 9 13 1030.0 1030.0 0.0
20/07:00pm 12.1 7.7 7.4 73 2.3 S 20 32 11 17 1029.5 1029.5 0.0
20/06:30pm 12.4 7.7 7.7 73 2.3 S 22 32 12 17 1029.3 1029.3 0.0
20/06:00pm 12.6 7.9 7.7 72 2.4 S 22 30 12 16 1029.1 1029.1 0.0
20/05:30pm 12.9 8.1 7.4 69 2.7 S 22 33 12 18 1028.7 1028.7 0.0
20/05:00pm 13.3 9.1 7.5 68 2.8 SSE 19 28 10 15 1028.4 1028.4 0.0
20/04:30pm 13.7 8.9 7.2 65 3.2 SSE 22 33 12 18 1028.2 1028.2 0.0
20/04:00pm 13.9 8.7 7.4 65 3.2 S 24 33 13 18 1027.9 1027.9 0.0
20/03:30pm 14.3 9.0 6.9 61 3.6 S 24 33 13 18 1027.7 1027.7 0.0
20/03:00pm 14.3 9.0 6.6 60 3.7 S 24 33 13 18 1027.5 1027.5 0.0
20/02:30pm 14.8 9.5 6.9 59 3.9 S 24 30 13 16 1027.4 1027.4 0.0
20/02:00pm 14.9 9.6 7.0 59 3.8 S 24 35 13 19 1027.4 1027.4 0.0
20/01:30pm 15.1 10.9 8.1 63 3.5 S 20 30 11 16 1027.5 1027.5 0.0
20/01:00pm 14.3 9.9 7.6 64 3.3 S 20 28 11 15 1027.5 1027.5 0.0
20/12:30pm 13.7 9.6 7.7 67 3.0 S 19 30 10 16 1027.8 1027.8 0.0
20/12:00pm 13.8 9.2 8.0 68 2.9 SSW 22 30 12 16 1028.0 1028.0 0.0
20/11:30am 14.0 9.6 7.3 64 3.3 S 20 28 11 15 1028.2 1028.2 0.0
20/11:00am 13.7 9.0 6.1 60 3.6 S 20 26 11 14 1028.3 1028.3 0.0
20/10:30am 13.9 9.6 7.9 67 3.0 S 20 28 11 15 1028.4 1028.4 0.0
20/10:00am 12.7 9.5 8.6 76 2.0 SSW 15 20 8 11 1028.5 1028.5 0.0
20/09:30am 12.0 9.6 8.5 79 1.7 SW 11 15 6 8 1028.6 1028.6 0.0
20/09:00am 11.9 7.9 8.4 79 1.7 S 19 24 10 13 1028.5 1028.5 0.2
20/08:30am 11.9 8.3 8.4 79 1.7 SW 17 22 9 12 1028.1 1028.1 0.2
20/08:00am 10.5 6.8 7.9 84 1.2 SSW 17 22 9 12 1027.9 1027.9 0.2
20/07:30am 9.9 6.8 7.2 83 1.3 SSW 13 17 7 9 1027.5 1027.5 0.2
20/07:00am 9.6 6.4 6.9 83 1.3 SW 13 17 7 9 1027.2 1027.2 0.2
20/06:30am 9.7 6.9 6.8 82 1.4 SSW 11 13 6 7 1026.8 1026.8 0.2
20/06:00am 9.7 7.5 6.4 80 1.5 WSW 7 11 4 6 1026.3 1026.3 0.2
20/05:30am 9.8 7.3 6.5 80 1.5 WSW 9 13 5 7 1026.0 1026.0 0.2
20/05:00am 9.3 6.4 6.6 83 1.2 W 11 15 6 8 1025.6 1025.6 0.2
20/04:30am 9.5 7.0 6.6 82 1.4 W 9 11 5 6 1025.3 1025.3 0.2
20/04:00am 9.4 6.8 6.3 81 1.4 W 9 11 5 6 1025.4 1025.4 0.2
20/03:30am 9.5 7.1 6.8 83 1.3 WSW 9 11 5 6 1025.4 1025.4 0.2
20/03:00am 8.8 6.2 6.1 83 1.2 W 9 11 5 6 1025.3 1025.3 0.2
20/02:30am 9.7 7.8 6.6 81 1.4 SSW 6 7 3 4 1025.4 1025.4 0.2
20/02:00am 9.6 7.5 6.5 81 1.4 WSW 7 9 4 5 1025.7 1025.7 0.2
20/01:30am 9.2 7.9 6.1 81 1.4 WNW 2 6 1 3 1025.8 1025.8 0.2
20/01:00am 9.9 7.9 6.2 78 1.7 W 6 9 3 5 1025.9 1025.9 0.2
20/12:30am 9.9 7.4 6.6 80 1.5 W 9 13 5 7 1025.6 1025.6 0.2
20/12:00am 9.4 6.6 7.0 85 1.1 W 11 15 6 8 1025.7 1025.7 0.2
 
Date/Time
EST
Tmp

°C
App
Tmp
°C
Dew
Point
°C
Rel
Hum
%
Delta-T

°C
Wind Press
QNH
hPa
Press
MSL
hPa
Rain
since
9 am
mm
Dir
 
Spd
km/h
Gust
km/h
Spd
kts
Gust
kts
19/11:30pm 8.7 5.6 5.6 81 1.4 NW 11 13 6 7 1025.5 1025.5 0.2
19/11:00pm 10.8 8.3 6.6 75 2.0 SW 9 11 5 6 1025.9 1025.9 0.2
19/10:30pm 11.3 7.7 6.6 73 2.2 SW 15 20 8 11 1026.0 1026.0 0.2
19/10:00pm 11.3 8.1 7.0 75 2.0 SW 13 17 7 9 1026.0 1026.0 0.2
19/09:30pm 11.8 8.8 7.5 75 2.1 SSW 13 17 7 9 1026.1 1026.1 0.2
19/09:00pm 11.8 9.1 7.3 74 2.2 SSW 11 15 6 8 1026.0 1026.0 0.2
19/08:30pm 11.6 9.2 6.9 73 2.2 SSW 9 13 5 7 1025.8 1025.8 0.2
19/08:00pm 11.8 8.9 6.5 70 2.5 SSW 11 17 6 9 1025.6 1025.6 0.2
19/07:30pm 11.9 8.7 7.0 72 2.3 SSW 13 19 7 10 1025.3 1025.3 0.2
19/07:00pm 12.1 8.6 7.2 72 2.3 S 15 20 8 11 1025.1 1025.1 0.2
19/06:30pm 12.3 8.5 7.4 72 2.4 S 17 24 9 13 1024.8 1024.8 0.2
19/06:00pm 12.5 8.2 7.2 70 2.5 S 19 24 10 13 1024.8 1024.8 0.2
19/05:30pm 12.8 8.9 7.3 69 2.7 S 17 22 9 12 1024.5 1024.5 0.2
19/05:00pm 13.1 8.9 7.3 68 2.8 S 19 28 10 15 1024.2 1024.2 0.2
19/04:30pm 13.7 9.4 7.0 64 3.3 S 19 24 10 13 1024.1 1024.1 0.2
19/04:00pm 13.8 9.9 7.3 65 3.2 S 17 24 9 13 1024.0 1024.0 0.2
19/03:30pm 13.7 9.5 7.5 66 3.0 S 19 30 10 16 1023.8 1023.8 0.2
19/03:00pm 14.5 10.2 6.8 60 3.7 S 19 26 10 14 1023.8 1023.8 0.2
19/02:30pm 14.3 9.7 5.7 56 4.1 S 19 22 10 12 1023.9 1023.9 0.2
19/02:00pm 13.8 9.2 6.4 61 3.5 S 20 28 11 15 1024.0 1024.0 0.2
19/01:30pm 14.4 10.0 7.2 62 3.5 SSE 20 28 11 15 1024.0 1024.0 0.2
19/01:00pm 14.9 9.8 4.3 49 4.9 S 20 26 11 14 1024.2 1024.2 0.2
19/12:30pm 15.4 11.3 4.2 47 5.2 S 15 22 8 12 1024.4 1024.4 0.2
19/12:00pm 15.1 10.4 5.0 51 4.7 S 19 26 10 14 1024.6 1024.6 0.2
19/11:30am 15.2 10.5 5.1 51 4.8 S 19 26 10 14 1024.6 1024.6 0.0
19/11:00am 14.9 10.1 5.4 53 4.5 SW 20 33 11 18 1024.8 1024.8 0.0
19/10:30am 13.7 8.6 5.8 59 3.7 WSW 22 32 12 17 1025.1 1025.1 0.0
19/10:00am 13.5 8.8 6.1 61 3.5 WSW 20 30 11 16 1025.2 1025.2 0.0
19/09:30am 13.0 7.6 6.4 64 3.1 W 24 30 13 16 1025.2 1025.2 0.0
19/09:00am 12.7 7.7 6.5 66 2.9 WSW 22 32 12 17 1025.3 1025.3 0.8
19/08:30am 11.4 6.9 7.1 75 2.1 W 20 28 11 15 1025.3 1025.3 0.8
19/08:00am 9.6 5.2 6.7 82 1.3 W 19 26 10 14 1025.2 1025.2 0.8
19/07:30am 7.7 3.5 5.8 88 0.9 WNW 17 20 9 11 1025.0 1025.0 0.8
19/07:00am 6.0 2.7 4.8 92 0.5 WNW 11 15 6 8 1024.9 1024.9 0.8
19/06:30am 6.1 2.9 4.9 92 0.5 WNW 11 13 6 7 1024.7 1024.7 0.8
19/06:00am 5.3 2.6 3.8 90 0.6 WNW 7 9 4 5 1024.4 1024.4 0.8
19/05:30am 5.6 3.2 4.1 90 0.6 W 6 6 3 3 1024.2 1024.2 0.8
19/05:00am 4.9 2.1 3.4 90 0.6 W 7 7 4 4 1024.1 1024.1 0.8
19/04:30am 4.5 0.9 3.0 90 0.6 NW 11 13 6 7 1023.9 1023.9 0.8
19/04:00am 4.0 0.3 2.5 90 0.6 WNW 11 13 6 7 1023.9 1023.9 0.8
19/03:30am 4.0 0.3 2.5 90 0.6 W 11 15 6 8 1023.9 1023.9 0.8
19/03:00am 4.6 0.6 2.9 89 0.7 WNW 13 15 7 8 1024.0 1024.0 0.8
19/02:30am 4.9 1.0 3.4 90 0.6 NW 13 15 7 8 1024.1 1024.1 0.8
19/02:00am 4.6 0.6 2.8 88 0.7 NW 13 15 7 8 1024.2 1024.2 0.8
19/01:30am 5.3 2.1 3.3 87 0.8 WNW 9 11 5 6 1024.4 1024.4 0.8
19/01:00am 5.8 2.8 4.0 88 0.8 WNW 9 13 5 7 1024.8 1024.8 0.8
19/12:30am 4.7 1.1 3.0 89 0.7 WNW 11 13 6 7 1024.9 1024.9 0.8
19/12:00am 4.8 0.8 2.7 86 0.8 NW 13 15 7 8 1024.9 1024.9 0.8
 
Date/Time
EST
Tmp

°C
App
Tmp
°C
Dew
Point
°C
Rel
Hum
%
Delta-T

°C
Wind Press
QNH
hPa
Press
MSL
hPa
Rain
since
9 am
mm
Dir
 
Spd
km/h
Gust
km/h
Spd
kts
Gust
kts
18/11:30pm 5.4 1.8 3.1 85 0.9 NW 11 13 6 7 1025.2 1025.2 0.8
18/11:00pm 5.8 1.9 3.3 84 1.0 WNW 13 13 7 7 1025.3 1025.3 0.8
18/10:30pm 6.1 2.6 3.3 82 1.2 WNW 11 13 6 7 1025.3 1025.3 0.8
18/10:00pm 7.2 3.8 3.8 79 1.4 WNW 11 17 6 9 1025.3 1025.3 0.8
18/09:30pm 8.0 4.6 4.0 76 1.7 WNW 11 15 6 8 1025.2 1025.2 0.8
18/09:00pm 9.1 5.8 4.3 72 2.1 WSW 11 15 6 8 1025.1 1025.1 0.8
18/08:30pm 9.6 6.8 5.2 74 2.0 WSW 9 13 5 7 1024.8 1024.8 0.8
18/08:00pm 10.2 7.5 5.4 72 2.2 SW 9 13 5 7 1024.8 1024.8 0.8
18/07:30pm 10.5 6.9 5.1 69 2.5 S 13 19 7 10 1024.7 1024.7 0.8
18/07:00pm 10.6 6.5 4.5 66 2.7 SSW 15 20 8 11 1024.4 1024.4 0.8
18/06:30pm 10.7 6.6 4.6 66 2.7 S 15 20 8 11 1024.2 1024.2 0.8
18/06:00pm 11.2 6.3 4.0 61 3.2 S 19 28 10 15 1024.0 1024.0 0.8
18/05:30pm 11.5 6.5 4.5 62 3.2 S 20 30 11 16 1023.7 1023.7 0.8
18/05:00pm 12.2 6.8 4.4 59 3.5 S 22 30 12 16 1023.4 1023.4 0.8
18/04:30pm 11.7 6.8 5.3 65 2.9 S 20 28 11 15 1023.1 1023.1 0.8
18/04:04pm 11.6 7.7 7.3 75 2.1 SSW 17 22 9 12 1023.0 1023.0 0.8
18/04:00pm 11.5 7.7 7.6 77 1.9 SSW 17 20 9 11 1023.0 1023.0 0.8
18/03:49pm 10.8 6.0 7.3 79 1.7 SW 22 32 12 17 1023.1 1023.1 0.6
18/03:30pm 12.2 7.8 6.7 69 2.6 S 19 28 10 15 1022.9 1022.9 0.4
18/03:00pm 12.2 7.2 6.3 67 2.8 SSW 22 28 12 15 1022.9 1022.9 0.4
18/02:30pm 12.1 9.6 8.2 77 1.9 SW 11 17 6 9 1022.9 1022.9 0.4

Latest Capital City Observations: Canberra | Sydney | Melbourne | Brisbane | Adelaide | Perth | Hobart | Darwin

Other Formats:

Comma delimited format used in spreadsheet applications
http://www.bom.gov.au/fwo/IDV60901/IDV60901.94865.axf

JavaScript Object Notation format (JSON) in row-major order
http://www.bom.gov.au/fwo/IDV60901/IDV60901.94865.json